Time;durP1;ratioP1;P1;durP2;ratioP2;P2;SDS_P1;SDS_P2;PMS_P1;PMS_P2;Temp;Humidity;BMP_temperature;BMP_pressure;BME280_temperature;BME280_humidity;BME280_pressure;Samples;Min_cycle;Max_cycle;Signal;HPM_P1;HPM_P2
2022/01/01 00:00:20;;;;;;;35.80;29.77;;;10.80;99.90;;;;;;5022551;28;21043;-88
2022/01/01 00:03:22;;;;;;;47.80;36.53;;;10.80;99.90;;;;;;5024466;28;20424;-88
2022/01/01 00:05:50;;;;;;;42.00;32.67;;;10.70;99.90;;;;;;5022551;28;20455;-87
2022/01/01 00:08:24;;;;;;;48.77;31.40;;;10.60;99.90;;;;;;5025543;28;20465;-90
2022/01/01 00:11:15;;;;;;;42.13;31.00;;;10.70;99.90;;;;;;5029177;28;20476;-89
2022/01/01 00:13:48;;;;;;;40.65;30.08;;;10.50;99.90;;;;;;5030373;28;20456;-90
2022/01/01 00:16:15;;;;;;;36.77;30.13;;;10.50;99.90;;;;;;5034872;28;20193;-86
2022/01/01 00:22:07;;;;;;;40.27;29.37;;;10.60;99.90;;;;;;4919835;28;20802;-82
2022/01/01 00:25:01;;;;;;;;;;;;;;;;;;;;;
2022/01/01 00:27:40;;;;;;;41.50;33.00;;;10.60;99.90;;;;;;5025130;28;20849;-82
2022/01/01 00:30:11;;;;;;;39.42;29.77;;;10.50;99.90;;;;;;5029087;28;20512;-85
2022/01/01 00:35:20;;;;;;;38.10;28.47;;;10.60;99.90;;;;;;5020342;28;20408;-86
2022/01/01 00:37:48;;;;;;;37.33;26.80;;;10.60;99.90;;;;;;5028813;28;20489;-85
2022/01/01 00:40:19;;;;;;;38.00;27.10;;;10.50;99.90;;;;;;5027731;28;20537;-87
2022/01/01 00:42:46;;;;;;;31.67;24.60;;;10.50;99.90;;;;;;5025287;28;20802;-85
2022/01/01 00:45:12;;;;;;;28.63;20.85;;;10.70;99.90;;;;;;5028914;28;20515;-83
2022/01/01 00:47:39;;;;;;;31.93;24.00;;;10.90;99.90;;;;;;5030429;28;20253;-85
2022/01/01 00:50:07;;;;;;;31.27;25.33;;;11.10;99.90;;;;;;5023957;28;20504;-85
2022/01/01 00:52:33;;;;;;;27.93;21.60;;;11.10;99.90;;;;;;5020836;28;20412;-80
2022/01/01 00:55:02;;;;;;;34.70;27.33;;;11.20;99.90;;;;;;5019214;28;20467;-80
2022/01/01 00:57:29;;;;;;;30.37;24.00;;;11.10;99.90;;;;;;5023699;28;20433;-83
2022/01/01 01:03:09;;;;;;;30.80;23.63;;;11.20;99.90;;;;;;4941083;29;20459;-85
2022/01/01 01:05:39;;;;;;;27.53;21.60;;;11.30;99.90;;;;;;5023496;28;20429;-85
2022/01/01 01:08:07;;;;;;;29.57;22.53;;;11.30;99.90;;;;;;5023804;28;20434;-82
2022/01/01 01:10:39;;;;;;;27.10;22.90;;;11.40;99.90;;;;;;5028388;28;20772;-84
2022/01/01 01:13:09;;;;;;;29.50;24.73;;;11.50;99.90;;;;;;5024444;28;20449;-86
2022/01/01 01:15:37;;;;;;;35.40;25.60;;;11.40;99.90;;;;;;5025391;28;20420;-84
2022/01/01 01:18:05;;;;;;;33.53;26.10;;;11.50;99.90;;;;;;5026529;28;20503;-85
2022/01/01 01:20:32;;;;;;;31.40;24.80;;;11.40;99.90;;;;;;5031100;28;20415;-86
2022/01/01 01:22:59;;;;;;;29.50;24.30;;;11.40;99.90;;;;;;5034772;28;20762;-86
2022/01/01 01:25:32;;;;;;;29.13;22.93;;;11.50;99.90;;;;;;5027235;28;20449;-86
2022/01/01 01:28:07;;;;;;;31.60;23.43;;;11.50;99.90;;;;;;5019983;28;20414;-85
2022/01/01 01:30:34;;;;;;;29.80;22.47;;;11.50;99.90;;;;;;5020905;28;20476;-86
2022/01/01 01:33:01;;;;;;;28.00;21.17;;;11.40;99.90;;;;;;5022108;28;20462;-88
2022/01/01 01:35:28;;;;;;;28.47;20.67;;;11.50;99.90;;;;;;5023054;28;20834;-88
2022/01/01 01:37:55;;;;;;;27.83;20.00;;;11.40;99.90;;;;;;5027080;28;20524;-82
2022/01/01 01:40:22;;;;;;;25.00;17.93;;;11.40;99.90;;;;;;5027768;28;20485;-81
2022/01/01 01:42:49;;;;;;;22.00;17.73;;;11.30;99.90;;;;;;5023615;28;21010;-83
2022/01/01 01:45:21;;;;;;;27.70;20.43;;;11.30;99.90;;;;;;5023195;28;20521;-83
2022/01/01 01:47:50;;;;;;;26.57;19.40;;;11.40;99.90;;;;;;5023259;28;20482;-85
2022/01/01 01:50:19;;;;;;;27.57;21.00;;;11.40;99.90;;;;;;5020788;28;20446;-84
2022/01/01 01:52:50;;;;;;;26.83;19.70;;;11.30;99.90;;;;;;5021280;28;20467;-84
2022/01/01 01:55:19;;;;;;;26.20;18.70;;;11.20;99.90;;;;;;5021657;28;20408;-84
2022/01/01 01:57:47;;;;;;;26.47;18.63;;;11.20;99.90;;;;;;5032051;28;20464;-84
2022/01/01 02:00:35;;;;;;;25.80;20.43;;;11.20;99.90;;;;;;5027994;28;20448;-84
2022/01/01 02:03:06;;;;;;;28.93;19.73;;;11.10;99.90;;;;;;5019595;28;20417;-83
2022/01/01 02:05:35;;;;;;;29.07;20.57;;;11.10;99.90;;;;;;5022167;28;20445;-83
2022/01/01 02:08:02;;;;;;;25.47;19.87;;;11.10;99.90;;;;;;5027475;28;20492;-83
2022/01/01 02:10:29;;;;;;;23.60;18.40;;;11.00;99.90;;;;;;5035541;28;20480;-81
2022/01/01 02:12:56;;;;;;;25.73;19.00;;;11.10;99.90;;;;;;5031842;28;20473;-83
2022/01/01 02:15:59;;;;;;;25.70;18.60;;;11.00;99.90;;;;;;5030529;28;20444;-82
2022/01/01 02:18:19;;;;;;;24.73;17.97;;;10.90;99.90;;;;;;5029771;28;20520;-84
2022/01/01 02:20:52;;;;;;;25.83;18.97;;;10.90;99.90;;;;;;5030182;28;20468;-82
2022/01/01 02:23:25;;;;;;;24.17;17.37;;;11.00;99.90;;;;;;5032125;28;20512;-83
2022/01/01 02:25:56;;;;;;;22.57;15.83;;;10.90;99.90;;;;;;5036767;28;20412;-84
2022/01/01 02:28:24;;;;;;;23.17;16.77;;;11.00;99.90;;;;;;5029409;28;20961;-84
2022/01/01 02:30:52;;;;;;;22.10;16.87;;;10.90;99.90;;;;;;5025601;28;20536;-84
2022/01/01 02:33:21;;;;;;;20.50;15.67;;;10.90;99.90;;;;;;5025318;28;20496;-82
2022/01/01 02:35:52;;;;;;;22.53;16.20;;;10.90;99.90;;;;;;5029114;28;20456;-83
2022/01/01 02:38:19;;;;;;;22.37;17.33;;;11.00;99.90;;;;;;5037118;28;20509;-83
2022/01/01 02:40:45;;;;;;;20.77;15.60;;;10.90;99.90;;;;;;5036528;28;20880;-84
2022/01/01 02:43:12;;;;;;;21.30;14.83;;;10.80;99.90;;;;;;5029002;28;20463;-84
2022/01/01 02:45:39;;;;;;;20.13;15.60;;;10.80;99.90;;;;;;5027545;28;20457;-83
2022/01/01 02:48:06;;;;;;;21.40;15.10;;;10.80;99.90;;;;;;5023495;28;20540;-84
2022/01/01 02:50:33;;;;;;;20.20;15.83;;;10.70;99.90;;;;;;5024353;28;20966;-84
2022/01/01 02:53:01;;;;;;;22.70;14.97;;;10.90;99.90;;;;;;5027802;28;20575;-84
2022/01/01 02:55:28;;;;;;;18.40;13.93;;;11.00;99.90;;;;;;5028971;28;20464;-84
2022/01/01 02:57:55;;;;;;;21.97;14.83;;;11.00;99.90;;;;;;5025462;28;20953;-85
2022/01/01 03:00:21;;;;;;;22.77;14.07;;;11.10;99.90;;;;;;5026939;28;20957;-83
2022/01/01 03:02:48;;;;;;;22.60;15.10;;;11.00;99.90;;;;;;5030497;28;20480;-83
2022/01/01 03:05:15;;;;;;;18.50;13.10;;;11.10;99.90;;;;;;5036327;28;20472;-83
2022/01/01 03:07:42;;;;;;;17.00;12.90;;;11.10;99.90;;;;;;5029870;28;20468;-85
2022/01/01 03:10:14;;;;;;;20.37;13.47;;;11.10;99.90;;;;;;5027100;28;20559;-84
2022/01/01 03:12:40;;;;;;;19.87;13.50;;;11.20;99.90;;;;;;5025106;28;20448;-82
2022/01/01 03:15:08;;;;;;;19.00;13.13;;;11.20;99.90;;;;;;5023874;28;20966;-83
2022/01/01 03:17:35;;;;;;;16.23;12.40;;;11.20;99.90;;;;;;5027715;28;20457;-84
2022/01/01 03:20:02;;;;;;;19.20;12.90;;;11.20;99.90;;;;;;5025732;28;20537;-84
2022/01/01 03:22:32;;;;;;;23.43;14.57;;;11.20;99.90;;;;;;5025871;28;20537;-83
2022/01/01 03:25:01;;;;;;;19.70;14.47;;;11.20;99.90;;;;;;5023836;28;20460;-83
2022/01/01 03:27:39;;;;;;;19.73;13.90;;;11.10;99.90;;;;;;5026692;28;20557;-83
2022/01/01 03:30:09;;;;;;;17.03;11.83;;;11.00;99.90;;;;;;5027268;28;20540;-83
2022/01/01 03:32:36;;;;;;;20.03;13.70;;;11.00;99.90;;;;;;5035045;28;20585;-84
2022/01/01 03:35:03;;;;;;;19.20;12.73;;;10.90;99.90;;;;;;5023172;28;20464;-85
2022/01/01 03:37:30;;;;;;;19.47;13.17;;;10.90;99.90;;;;;;5023124;28;20551;-84
2022/01/01 03:39:57;;;;;;;16.53;11.73;;;10.90;99.90;;;;;;5022988;28;20473;-84
2022/01/01 03:42:24;;;;;;;18.13;12.43;;;10.90;99.90;;;;;;5022835;28;20452;-84
2022/01/01 03:44:52;;;;;;;21.40;13.10;;;10.90;99.90;;;;;;5023938;28;20446;-83
2022/01/01 03:47:19;;;;;;;16.77;12.53;;;11.00;99.90;;;;;;5026024;28;20951;-84
2022/01/01 03:49:46;;;;;;;19.87;12.90;;;11.00;99.90;;;;;;5030686;28;20557;-82
2022/01/01 03:52:13;;;;;;;18.20;13.17;;;11.00;99.90;;;;;;5027897;28;20484;-83
2022/01/01 03:54:39;;;;;;;16.30;12.43;;;11.00;99.90;;;;;;5022523;28;20553;-83
2022/01/01 03:57:12;;;;;;;17.63;12.13;;;11.00;99.90;;;;;;5021947;28;21013;-83
2022/01/01 03:59:42;;;;;;;15.10;11.93;;;11.00;99.90;;;;;;5024449;28;20480;-83
2022/01/01 04:02:10;;;;;;;16.17;10.97;;;11.00;99.90;;;;;;5028395;28;20497;-83
2022/01/01 04:04:37;;;;;;;17.07;11.00;;;11.00;99.90;;;;;;5028898;28;20859;-84
2022/01/01 04:07:04;;;;;;;14.43;10.43;;;11.10;99.90;;;;;;5025277;28;20520;-84
2022/01/01 04:09:31;;;;;;;16.83;10.83;;;11.10;99.90;;;;;;5028085;28;20474;-83
2022/01/01 04:11:58;;;;;;;15.77;10.30;;;11.10;99.90;;;;;;5025280;28;20509;-84
2022/01/01 04:14:24;;;;;;;14.80;10.50;;;11.20;99.90;;;;;;5023161;28;20596;-84
2022/01/01 04:16:53;;;;;;;14.23;10.30;;;11.40;99.90;;;;;;5022046;28;20900;-84
2022/01/01 04:19:25;;;;;;;14.80;11.40;;;11.50;99.90;;;;;;5022049;28;20504;-83
2022/01/01 04:21:52;;;;;;;18.00;11.77;;;11.50;99.90;;;;;;5022145;28;20437;-81
2022/01/01 04:24:19;;;;;;;15.13;11.53;;;11.50;99.90;;;;;;5024811;28;20477;-84
2022/01/01 04:26:46;;;;;;;13.27;9.53;;;11.50;99.90;;;;;;5031105;28;20464;-83
2022/01/01 04:29:13;;;;;;;15.83;10.40;;;11.60;99.90;;;;;;5038045;28;20478;-83
2022/01/01 04:31:41;;;;;;;46.07;38.87;;;11.60;99.90;;;;;;5033190;28;20503;-85
2022/01/01 04:34:08;;;;;;;17.10;14.30;;;11.70;99.90;;;;;;5032907;28;20580;-83
2022/01/01 04:36:46;;;;;;;14.47;10.30;;;11.70;99.90;;;;;;5021059;28;20953;-85
2022/01/01 04:39:12;;;;;;;16.43;11.17;;;11.60;99.90;;;;;;5020995;28;20960;-84
2022/01/01 04:41:41;;;;;;;14.33;9.47;;;11.50;99.90;;;;;;5031594;28;20489;-84
2022/01/01 04:44:08;;;;;;;20.33;10.60;;;11.50;99.90;;;;;;5022104;28;20491;-83
2022/01/01 04:46:36;;;;;;;13.70;10.07;;;11.50;99.90;;;;;;5020572;28;20460;-83
2022/01/01 04:49:03;;;;;;;14.17;10.30;;;11.50;99.90;;;;;;5020738;28;20526;-83
2022/01/01 04:51:29;;;;;;;17.87;10.73;;;11.40;99.90;;;;;;5021112;28;20437;-83
2022/01/01 04:54:01;;;;;;;14.87;9.67;;;11.40;99.90;;;;;;5020075;28;20515;-82
2022/01/01 04:56:29;;;;;;;16.63;11.10;;;11.40;99.90;;;;;;5033059;28;20437;-83
2022/01/01 04:58:56;;;;;;;14.90;9.90;;;11.40;99.90;;;;;;5035170;28;20439;-84
2022/01/01 05:01:23;;;;;;;12.67;8.30;;;11.30;99.90;;;;;;5028582;28;20468;-84
2022/01/01 05:03:50;;;;;;;13.13;8.93;;;11.30;99.90;;;;;;5031944;28;20478;-82
2022/01/01 05:06:16;;;;;;;17.63;9.70;;;11.20;99.90;;;;;;5037682;28;20524;-82
2022/01/01 05:08:43;;;;;;;11.27;7.97;;;11.20;99.90;;;;;;5031588;28;20493;-83
2022/01/01 05:11:11;;;;;;;11.47;7.90;;;11.20;99.90;;;;;;5033998;28;20431;-82
2022/01/01 05:13:38;;;;;;;10.70;7.70;;;11.20;99.90;;;;;;5031968;28;20500;-82
2022/01/01 05:16:05;;;;;;;11.40;7.03;;;11.10;99.90;;;;;;5035795;28;20519;-83
2022/01/01 05:18:36;;;;;;;10.20;6.77;;;11.10;99.90;;;;;;5035300;28;20473;-82
2022/01/01 05:21:03;;;;;;;9.27;6.67;;;11.20;99.90;;;;;;5033280;28;20466;-83
2022/01/01 05:23:30;;;;;;;10.10;7.03;;;11.20;99.90;;;;;;5027651;28;20476;-84
2022/01/01 05:25:56;;;;;;;10.33;6.60;;;11.20;99.90;;;;;;5023958;28;20471;-85
2022/01/01 05:28:25;;;;;;;10.40;7.20;;;11.10;99.90;;;;;;5026379;28;20545;-83
2022/01/01 05:30:52;;;;;;;10.17;7.10;;;11.10;99.90;;;;;;5028486;28;20473;-86
2022/01/01 05:33:19;;;;;;;10.93;7.00;;;11.10;99.90;;;;;;5021520;28;20579;-83
2022/01/01 05:35:46;;;;;;;11.60;7.20;;;10.90;99.90;;;;;;5038194;22;20499;-84
2022/01/01 05:38:13;;;;;;;9.73;6.67;;;10.90;99.90;;;;;;4983336;28;20529;-83
2022/01/01 05:40:40;;;;;;;11.67;7.20;;;10.80;99.90;;;;;;4979206;28;20461;-84
2022/01/01 05:43:12;;;;;;;11.00;6.87;;;10.70;99.90;;;;;;4979526;28;20462;-84
2022/01/01 05:45:42;;;;;;;10.40;6.50;;;10.70;99.90;;;;;;4978231;28;20471;-83
2022/01/01 05:48:09;;;;;;;9.60;6.30;;;10.60;99.90;;;;;;4977188;28;20494;-84
2022/01/01 05:50:36;;;;;;;11.50;6.47;;;10.70;99.90;;;;;;4977175;28;20456;-84
2022/01/01 05:53:03;;;;;;;8.90;6.07;;;10.70;99.90;;;;;;4977008;28;20477;-84
2022/01/01 05:55:29;;;;;;;9.40;5.77;;;10.70;99.90;;;;;;4976716;28;20463;-84
2022/01/01 05:57:56;;;;;;;9.80;6.20;;;10.60;99.90;;;;;;4978361;28;20457;-84
2022/01/01 06:00:23;;;;;;;9.60;6.03;;;10.60;99.90;;;;;;4981468;28;20474;-83
2022/01/01 06:02:51;;;;;;;8.33;5.33;;;10.60;99.90;;;;;;4982562;28;20526;-83
2022/01/01 06:05:19;;;;;;;8.83;6.40;;;10.50;99.90;;;;;;4982460;28;20462;-84
2022/01/01 06:07:45;;;;;;;9.70;6.23;;;10.50;99.90;;;;;;4981426;28;20889;-84
2022/01/01 06:10:12;;;;;;;9.27;5.90;;;10.50;99.90;;;;;;4980658;28;20497;-84
2022/01/01 06:12:40;;;;;;;10.80;5.50;;;10.50;99.90;;;;;;4980851;28;20577;-83
2022/01/01 06:15:07;;;;;;;9.15;5.38;;;10.50;99.90;;;;;;4983732;28;20861;-83
2022/01/01 06:17:34;;;;;;;9.53;5.70;;;10.40;99.90;;;;;;4985400;28;20556;-84
2022/01/01 06:20:04;;;;;;;11.60;5.57;;;10.30;99.90;;;;;;4988149;28;20514;-84
2022/01/01 06:22:31;;;;;;;8.30;5.20;;;10.30;99.90;;;;;;4985618;28;20960;-84
2022/01/01 06:24:58;;;;;;;7.37;4.87;;;10.40;99.90;;;;;;4980214;28;20562;-84
2022/01/01 06:27:24;;;;;;;9.63;5.17;;;10.60;99.90;;;;;;4980879;28;20488;-83
2022/01/01 06:29:51;;;;;;;8.23;4.97;;;10.60;99.90;;;;;;4980058;28;20465;-84
2022/01/01 06:32:18;;;;;;;9.40;5.30;;;10.70;99.90;;;;;;4980099;28;20468;-84
2022/01/01 06:34:45;;;;;;;7.07;4.60;;;10.70;99.90;;;;;;4980629;28;20537;-81
2022/01/01 06:37:13;;;;;;;10.00;4.87;;;10.60;99.90;;;;;;4978330;28;20458;-80
2022/01/01 06:39:40;;;;;;;7.97;4.70;;;10.70;99.90;;;;;;4978284;28;20469;-81
2022/01/01 06:42:08;;;;;;;7.90;5.03;;;10.70;99.90;;;;;;4978329;28;20463;-81
2022/01/01 06:44:35;;;;;;;8.17;5.57;;;10.70;99.90;;;;;;4978172;28;20462;-82
2022/01/01 06:47:02;;;;;;;7.17;5.33;;;10.70;99.90;;;;;;4979262;28;20570;-81
2022/01/01 06:49:29;;;;;;;7.73;4.87;;;10.70;99.90;;;;;;4982862;28;20458;-81
2022/01/01 06:51:55;;;;;;;8.17;5.23;;;10.70;99.90;;;;;;4978783;28;20490;-77
2022/01/01 06:54:23;;;;;;;9.07;5.27;;;10.70;99.90;;;;;;4976092;28;20455;-77
2022/01/01 06:56:50;;;;;;;9.60;5.00;;;10.70;99.90;;;;;;4976540;28;20474;-78
2022/01/01 06:59:17;;;;;;;10.93;5.60;;;10.70;99.90;;;;;;4980228;28;20454;-79
2022/01/01 07:01:44;;;;;;;7.43;4.70;;;10.80;99.90;;;;;;4979769;28;20908;-79
2022/01/01 07:04:11;;;;;;;6.63;4.50;;;10.80;99.90;;;;;;4978425;28;20458;-80
2022/01/01 07:06:37;;;;;;;8.10;4.87;;;10.80;99.90;;;;;;4979671;28;20481;-79
2022/01/01 07:09:06;;;;;;;7.43;4.90;;;10.80;99.90;;;;;;4977299;28;20459;-78
2022/01/01 07:11:34;;;;;;;8.37;4.13;;;10.80;99.90;;;;;;4976858;28;20565;-78
2022/01/01 07:14:01;;;;;;;9.77;4.93;;;10.80;99.90;;;;;;4976712;28;20498;-79
2022/01/01 07:16:28;;;;;;;8.40;5.17;;;10.80;99.90;;;;;;4976371;28;20512;-78
2022/01/01 07:18:54;;;;;;;8.97;5.27;;;10.80;99.90;;;;;;4977730;28;20490;-80
2022/01/01 07:21:21;;;;;;;8.10;5.27;;;10.90;99.90;;;;;;4977894;28;20459;-81
2022/01/01 07:23:48;;;;;;;8.20;5.03;;;10.80;99.90;;;;;;4979904;28;20550;-81
2022/01/01 07:26:15;;;;;;;10.13;4.93;;;10.80;99.90;;;;;;4982523;28;20529;-79
2022/01/01 07:28:44;;;;;;;8.70;5.27;;;10.70;99.90;;;;;;4978685;28;20971;-79
2022/01/01 07:31:11;;;;;;;8.57;5.63;;;10.70;99.90;;;;;;4982034;28;21023;-80
2022/01/01 07:33:38;;;;;;;9.30;6.00;;;10.70;99.90;;;;;;4980643;28;20485;-80
2022/01/01 07:36:05;;;;;;;10.30;5.83;;;10.80;99.90;;;;;;4980707;28;20478;-79
2022/01/01 07:38:32;;;;;;;7.75;5.38;;;10.70;99.90;;;;;;4979570;28;20455;-79
2022/01/01 07:40:58;;;;;;;8.80;4.90;;;10.80;99.90;;;;;;4979467;28;20583;-80
2022/01/01 07:43:26;;;;;;;7.20;4.90;;;10.90;99.90;;;;;;4978820;28;20426;-79
2022/01/01 07:45:54;;;;;;;8.07;4.90;;;10.90;99.90;;;;;;4982455;28;20479;-80
2022/01/01 07:48:21;;;;;;;9.27;5.67;;;11.00;99.90;;;;;;4979277;28;20460;-79
2022/01/01 07:50:47;;;;;;;7.23;4.73;;;11.00;99.90;;;;;;4979289;28;20561;-79
2022/01/01 07:53:14;;;;;;;7.03;4.77;;;11.00;99.90;;;;;;4981348;28;20578;-80
2022/01/01 07:55:41;;;;;;;6.30;4.30;;;11.00;99.90;;;;;;4984398;28;20530;-78
2022/01/01 07:58:08;;;;;;;7.83;4.63;;;10.90;99.90;;;;;;4981529;28;20811;-80
2022/01/01 08:00:35;;;;;;;7.30;4.40;;;10.90;99.90;;;;;;4979915;28;20451;-78
2022/01/01 08:03:03;;;;;;;7.77;5.17;;;10.80;99.90;;;;;;4976382;28;20451;-77
2022/01/01 08:05:30;;;;;;;7.73;4.20;;;10.80;99.90;;;;;;4974770;28;20457;-78
2022/01/01 08:07:56;;;;;;;8.07;5.20;;;10.90;99.90;;;;;;4975365;28;20461;-79
2022/01/01 08:10:23;;;;;;;8.17;4.50;;;11.00;99.90;;;;;;4978157;28;20467;-79
2022/01/01 08:12:50;;;;;;;7.93;4.63;;;11.10;99.90;;;;;;4979954;28;20912;-79
2022/01/01 08:15:17;;;;;;;10.33;4.90;;;11.10;99.90;;;;;;4978967;28;20478;-79
2022/01/01 08:17:44;;;;;;;9.40;5.90;;;11.10;99.90;;;;;;4981342;28;20538;-79
2022/01/01 08:20:13;;;;;;;10.23;4.47;;;11.10;99.90;;;;;;4980141;28;20824;-79
2022/01/01 08:22:43;;;;;;;6.73;4.30;;;11.10;99.90;;;;;;4980729;28;20494;-79
2022/01/01 08:25:10;;;;;;;8.53;4.30;;;11.00;99.90;;;;;;4977088;28;20433;-81
2022/01/01 08:27:37;;;;;;;7.60;4.67;;;11.10;99.90;;;;;;4979709;28;20470;-78
2022/01/01 08:30:05;;;;;;;9.33;4.63;;;11.10;99.90;;;;;;4980186;28;20518;-78
2022/01/01 08:32:32;;;;;;;9.83;5.30;;;11.10;99.90;;;;;;4977912;28;20809;-78
2022/01/01 08:34:59;;;;;;;8.43;4.70;;;11.10;99.90;;;;;;4979344;28;20437;-78
2022/01/01 08:37:27;;;;;;;8.10;4.63;;;11.10;99.90;;;;;;4978877;28;20581;-78
2022/01/01 08:39:55;;;;;;;7.87;4.10;;;11.10;99.90;;;;;;4980428;28;20447;-78
2022/01/01 08:42:23;;;;;;;6.17;3.77;;;11.10;99.90;;;;;;4980979;28;20448;-78
2022/01/01 08:44:51;;;;;;;6.60;4.33;;;11.00;99.90;;;;;;4978060;28;20493;-78
2022/01/01 08:47:18;;;;;;;7.03;3.80;;;11.10;99.90;;;;;;4979585;28;20483;-78
2022/01/01 08:49:46;;;;;;;8.97;4.40;;;11.10;99.90;;;;;;4981488;28;20455;-76
2022/01/01 08:52:13;;;;;;;10.20;4.10;;;11.20;99.90;;;;;;4987216;28;20455;-85
2022/01/01 08:54:41;;;;;;;6.00;4.37;;;11.20;99.90;;;;;;4984430;28;20486;-81
2022/01/01 08:57:09;;;;;;;6.73;4.37;;;11.20;99.90;;;;;;4983879;28;20472;-82
2022/01/01 08:59:36;;;;;;;5.60;4.30;;;11.20;99.90;;;;;;4981096;28;20589;-80
2022/01/01 09:02:03;;;;;;;6.63;4.30;;;11.20;99.90;;;;;;4986544;28;20526;-82
2022/01/01 09:04:30;;;;;;;6.67;3.93;;;11.20;99.90;;;;;;4986823;28;20447;-80
2022/01/01 09:06:57;;;;;;;8.03;4.80;;;11.30;99.90;;;;;;4986625;28;20479;-80
2022/01/01 09:09:23;;;;;;;8.13;4.40;;;11.30;99.90;;;;;;4981127;28;20476;-80
2022/01/01 09:11:51;;;;;;;8.07;4.27;;;11.40;99.90;;;;;;4990811;28;20526;-80
2022/01/01 09:14:18;;;;;;;8.03;4.90;;;11.40;99.90;;;;;;4982284;28;20601;-79
2022/01/01 09:16:45;;;;;;;6.90;4.30;;;11.50;99.90;;;;;;4983350;28;20580;-79
2022/01/01 09:19:12;;;;;;;5.67;3.53;;;11.60;99.90;;;;;;4983754;28;20460;-80
2022/01/01 09:21:39;;;;;;;6.33;3.90;;;11.70;99.90;;;;;;4984068;28;20522;-78
2022/01/01 09:24:06;;;;;;;5.77;3.50;;;11.80;99.90;;;;;;4980831;28;20848;-82
2022/01/01 09:26:34;;;;;;;6.10;4.10;;;11.90;99.90;;;;;;4982527;28;20490;-80
2022/01/01 09:29:02;;;;;;;7.23;3.63;;;12.10;99.90;;;;;;4983781;28;20456;-80
2022/01/01 09:31:29;;;;;;;6.43;3.50;;;12.20;99.90;;;;;;4983530;28;20440;-80
2022/01/01 09:33:56;;;;;;;7.53;3.70;;;12.40;99.90;;;;;;4982410;28;20558;-79
2022/01/01 09:36:23;;;;;;;7.20;3.77;;;12.50;99.90;;;;;;4980317;28;20491;-81
2022/01/01 09:38:49;;;;;;;7.47;4.37;;;12.70;99.90;;;;;;4978563;28;20754;-82
2022/01/01 09:41:16;;;;;;;7.13;4.00;;;12.80;99.90;;;;;;4976790;28;20457;-82
2022/01/01 09:43:45;;;;;;;6.80;4.47;;;12.80;99.90;;;;;;4976031;28;20451;-81
2022/01/01 09:46:15;;;;;;;6.13;3.80;;;12.80;99.90;;;;;;4975965;28;20506;-79
2022/01/01 09:48:42;;;;;;;5.90;3.40;;;12.90;99.90;;;;;;4976896;28;20451;-83
2022/01/01 09:51:09;;;;;;;6.40;3.97;;;13.00;99.90;;;;;;4979355;28;20467;-80
2022/01/01 09:53:36;;;;;;;4.80;3.17;;;13.00;99.90;;;;;;4979253;28;20502;-80
2022/01/01 09:56:05;;;;;;;7.73;5.00;;;13.10;99.90;;;;;;4977208;28;20563;-78
2022/01/01 09:58:33;;;;;;;6.80;3.93;;;13.20;99.90;;;;;;4976941;28;20494;-80
2022/01/01 10:01:02;;;;;;;6.90;3.93;;;13.20;99.90;;;;;;4981667;28;20519;-80
2022/01/01 10:03:34;;;;;;;5.50;3.60;;;13.30;99.90;;;;;;4983538;28;20834;-78
2022/01/01 10:06:02;;;;;;;6.93;3.07;;;13.30;99.90;;;;;;4976624;28;20788;-79
2022/01/01 10:08:29;;;;;;;6.60;3.17;;;13.30;99.90;;;;;;4977020;28;20531;-80
2022/01/01 10:10:57;;;;;;;9.13;4.33;;;13.40;99.90;;;;;;4976489;28;20462;-78
2022/01/01 10:13:28;;;;;;;4.73;2.70;;;13.40;99.90;;;;;;4973154;28;20519;-76
2022/01/01 10:15:56;;;;;;;7.10;4.40;;;13.50;99.90;;;;;;4973784;28;20476;-78
2022/01/01 10:18:35;;;;;;;11.33;4.30;;;13.60;99.90;;;;;;4974272;28;20423;-77
2022/01/01 10:21:04;;;;;;;6.40;3.90;;;13.70;99.90;;;;;;4973416;28;20443;-77
2022/01/01 10:23:33;;;;;;;5.07;3.40;;;13.70;99.90;;;;;;4975211;28;20572;-81
2022/01/01 10:29:10;;;;;;;7.27;3.40;;;13.80;99.90;;;;;;4977393;28;20465;-79
2022/01/01 10:31:38;;;;;;;5.77;3.30;;;13.80;99.90;;;;;;4978318;28;20820;-79
2022/01/01 10:34:15;;;;;;;4.87;3.00;;;13.90;99.90;;;;;;4978894;28;20571;-79
2022/01/01 10:36:45;;;;;;;5.30;2.67;;;13.90;99.90;;;;;;4974565;28;20974;-79
2022/01/01 10:39:14;;;;;;;6.50;3.30;;;14.00;99.90;;;;;;4974530;28;20491;-78
2022/01/01 10:41:50;;;;;;;5.30;2.63;;;14.10;99.90;;;;;;4974803;28;20538;-78
2022/01/01 10:44:21;;;;;;;5.37;3.40;;;14.10;99.90;;;;;;4975196;28;20459;-77
2022/01/01 10:46:48;;;;;;;8.57;3.23;;;14.10;99.90;;;;;;4976192;28;20959;-78
2022/01/01 10:49:37;;;;;;;5.57;2.63;;;14.20;99.90;;;;;;4976729;28;20858;-78
2022/01/01 10:52:16;;;;;;;5.17;3.00;;;14.20;99.90;;;;;;4978859;28;20892;-78
2022/01/01 10:54:54;;;;;;;5.13;2.47;;;14.20;99.90;;;;;;4978236;28;20542;-78
2022/01/01 10:57:26;;;;;;;5.60;2.60;;;14.30;99.90;;;;;;4977044;28;20446;-79
2022/01/01 11:00:06;;;;;;;4.37;2.47;;;14.40;99.90;;;;;;4977349;28;20440;-77
2022/01/01 11:02:34;;;;;;;6.73;4.37;;;14.50;99.90;;;;;;4979417;28;20439;-81
2022/01/01 11:05:03;;;;;;;9.80;5.77;;;14.50;99.90;;;;;;4979915;28;20940;-79
2022/01/01 11:07:31;;;;;;;10.97;6.80;;;14.50;99.90;;;;;;4976864;28;20472;-78
2022/01/01 11:09:59;;;;;;;10.50;7.17;;;14.20;99.90;;;;;;4976251;28;20441;-78
2022/01/01 11:12:28;;;;;;;11.87;6.60;;;14.10;99.90;;;;;;4976285;28;20435;-78
2022/01/01 11:14:56;;;;;;;9.00;5.70;;;14.00;99.90;;;;;;4977198;28;20573;-78
2022/01/01 11:17:23;;;;;;;10.07;5.50;;;14.00;99.90;;;;;;4978324;28;20450;-78
2022/01/01 11:19:51;;;;;;;11.47;5.93;;;14.10;99.90;;;;;;4975910;28;20470;-78
2022/01/01 11:22:19;;;;;;;8.77;5.77;;;14.10;99.90;;;;;;4975645;28;20458;-77
2022/01/01 11:24:47;;;;;;;8.27;5.40;;;14.30;99.90;;;;;;4976250;28;20427;-77
2022/01/01 11:27:14;;;;;;;10.07;6.50;;;14.40;99.90;;;;;;4976704;28;20550;-78
2022/01/01 11:29:49;;;;;;;8.40;5.50;;;14.30;99.90;;;;;;4976026;28;20518;-79
2022/01/01 11:32:19;;;;;;;8.30;5.40;;;14.30;99.90;;;;;;4977615;28;20418;-79
2022/01/01 11:34:49;;;;;;;8.57;5.73;;;14.20;99.90;;;;;;4979517;28;20497;-82
2022/01/01 11:37:22;;;;;;;9.30;6.00;;;14.30;99.90;;;;;;5003399;23;20473;-82
2022/01/01 11:39:54;;;;;;;8.23;6.10;;;14.40;99.90;;;;;;5000728;28;20516;-84
2022/01/01 11:42:20;;;;;;;9.57;5.87;;;14.40;99.90;;;;;;5005935;28;20410;-81
2022/01/01 11:44:51;;;;;;;9.10;6.20;;;14.50;99.90;;;;;;5003120;28;20435;-80
2022/01/01 11:47:20;;;;;;;9.40;6.37;;;14.50;99.90;;;;;;5001937;28;20451;-81
2022/01/01 11:49:48;;;;;;;7.60;4.77;;;14.70;99.90;;;;;;5000251;28;20476;-80
2022/01/01 11:52:35;;;;;;;7.53;5.63;;;14.60;99.90;;;;;;5000658;28;20940;-80
2022/01/01 11:55:10;;;;;;;12.07;8.00;;;14.60;99.90;;;;;;5002462;28;20477;-82
2022/01/01 11:57:37;;;;;;;9.30;6.40;;;14.70;99.90;;;;;;5007217;28;20505;-81
2022/01/01 12:00:11;;;;;;;11.10;7.63;;;14.80;99.90;;;;;;5003556;28;20580;-82
2022/01/01 12:02:48;;;;;;;8.00;5.50;;;14.80;99.90;;;;;;5001950;28;20516;-83
2022/01/01 12:05:18;;;;;;;8.30;5.57;;;14.90;99.90;;;;;;5001758;28;20410;-80
2022/01/01 12:07:55;;;;;;;7.83;5.17;;;14.90;99.90;;;;;;5009291;28;20554;-79
2022/01/01 12:10:33;;;;;;;9.83;5.73;;;15.00;99.90;;;;;;5005902;28;20439;-80
2022/01/01 12:13:02;;;;;;;8.40;5.23;;;15.10;99.90;;;;;;5000345;28;20873;-79
2022/01/01 12:15:42;;;;;;;8.93;5.10;;;15.10;99.90;;;;;;5000174;28;20446;-80
2022/01/01 12:18:12;;;;;;;7.63;5.47;;;15.10;99.90;;;;;;5000594;28;21059;-80
2022/01/01 12:20:40;;;;;;;9.73;6.07;;;15.10;99.90;;;;;;5002052;28;20539;-81
2022/01/01 12:23:12;;;;;;;10.50;6.40;;;15.10;99.90;;;;;;5000348;28;20430;-81
2022/01/01 12:25:41;;;;;;;8.67;5.60;;;15.10;99.90;;;;;;5003502;28;20460;-81
2022/01/01 12:28:10;;;;;;;9.07;5.37;;;15.20;99.90;;;;;;5000592;28;20481;-81
2022/01/01 12:30:43;;;;;;;10.97;6.10;;;15.00;99.90;;;;;;5006978;28;20434;-81
2022/01/01 12:33:12;;;;;;;7.83;5.57;;;14.80;99.90;;;;;;5003365;28;20421;-80
2022/01/01 12:35:42;;;;;;;11.50;6.93;;;14.90;99.90;;;;;;5004429;28;20485;-80
2022/01/01 12:38:12;;;;;;;13.10;9.37;;;15.20;99.90;;;;;;5012665;28;20535;-80
2022/01/01 12:40:56;;;;;;;10.93;8.40;;;15.00;99.90;;;;;;5005214;28;20846;-81
2022/01/01 12:43:23;;;;;;;11.77;8.53;;;14.80;99.90;;;;;;5000756;28;20844;-81
2022/01/01 12:45:51;;;;;;;10.80;7.80;;;14.70;99.90;;;;;;5004492;28;20426;-80
2022/01/01 12:48:23;;;;;;;13.07;9.00;;;14.70;99.90;;;;;;5006470;28;20521;-79
2022/01/01 12:50:57;;;;;;;13.93;8.87;;;14.90;99.90;;;;;;5008068;28;20470;-81
2022/01/01 12:53:26;;;;;;;16.00;9.57;;;15.00;99.90;;;;;;5006239;28;20498;-80
2022/01/01 12:56:01;;;;;;;11.47;8.20;;;14.90;99.90;;;;;;5013291;28;20509;-80
2022/01/01 12:58:37;;;;;;;13.27;8.97;;;14.90;99.90;;;;;;5008692;28;20490;-80